Time;durP1;ratioP1;P1;durP2;ratioP2;P2;SDS_P1;SDS_P2;PMS_P1;PMS_P2;Temp;Humidity;BMP_temperature;BMP_pressure;BME280_temperature;BME280_humidity;BME280_pressure;Samples;Min_cycle;Max_cycle;Signal;HPM_P1;HPM_P2
2021/07/19 08:31:44;;;;;;;5.45;2.88;;;;;;;23.51;64.19;101089.00;5961739;23;20987;31
2021/07/19 09:41:22;;;;;;;;;;;;;;;23.83;65.61;101053.09;5181366;27;1663;-55
2021/07/19 09:43:50;;;;;;;;;;;;;;;24.02;73.42;101049.44;5178975;27;1276;-53
2021/07/19 09:46:16;;;;;;;;;;;;;;;24.08;65.25;101046.91;5161326;27;855;-53
2021/07/19 09:48:41;;;;;;;;;;;;;;;24.04;64.60;101047.34;5179199;27;1917;-53
2021/07/19 09:51:06;;;;;;;;;;;;;;;24.04;65.43;101039.25;5179873;27;906;-54
2021/07/19 10:05:29;;;;;;;9.10;2.72;;;;;;;24.01;62.96;101033.44;5186264;27;20541;-48
2021/07/19 10:08:00;;;;;;;5.57;3.00;;;;;;;24.01;61.44;101030.75;5147336;27;20022;-42
2021/07/19 10:25:17;;;;;;;21.40;3.85;;;;;;;24.21;62.05;101029.81;5325545;22;20492;-67
2021/07/19 10:27:44;;;;;;;16.73;2.60;;;;;;;24.27;61.70;101024.31;5138172;27;20030;-69
2021/07/19 10:30:11;;;;;;;9.07;2.63;;;;;;;24.31;60.71;101022.00;5138052;27;20573;-66
2021/07/19 10:32:37;;;;;;;4.50;2.65;;;;;;;24.34;61.42;101026.13;5138071;27;20059;-63
2021/07/19 10:35:08;;;;;;;4.50;2.70;;;;;;;24.37;60.37;101015.69;5137220;27;20038;-65
2021/07/19 10:37:47;;;;;;;3.85;2.22;;;;;;;24.39;60.89;101019.03;5138310;27;20484;-74
2021/07/19 10:40:25;;;;;;;3.45;2.20;;;;;;;24.43;60.84;101013.16;5138704;27;20027;-67
2021/07/19 10:43:02;;;;;;;4.07;2.20;;;;;;;24.46;60.25;101015.41;5137754;27;20079;-67
2021/07/19 10:45:40;;;;;;;10.23;2.50;;;;;;;24.49;60.28;101007.69;5137928;27;20038;-69
2021/07/19 10:48:07;;;;;;;6.05;2.42;;;;;;;24.54;60.29;101012.44;5137455;27;20086;-62
2021/07/19 10:50:39;;;;;;;5.65;2.45;;;;;;;24.56;59.65;101012.22;5137550;27;20377;-62
2021/07/19 10:53:15;;;;;;;3.38;2.17;;;;;;;24.59;58.36;101011.75;5137877;27;20039;-66
2021/07/19 10:55:41;;;;;;;4.35;2.03;;;;;;;24.64;58.63;101017.28;5138159;27;20071;-63
2021/07/19 10:58:13;;;;;;;4.47;2.35;;;;;;;24.66;58.95;101009.78;5137544;27;20496;-62
2021/07/19 11:00:40;;;;;;;3.63;1.95;;;;;;;24.69;57.48;101008.50;5119540;27;20114;-62
2021/07/19 11:03:08;;;;;;;4.30;2.15;;;;;;;24.72;58.46;101005.38;5137581;27;20390;-68
2021/07/19 11:05:36;;;;;;;5.75;2.25;;;;;;;24.75;58.71;101004.94;5137671;27;20089;-70
2021/07/19 11:08:03;;;;;;;5.07;2.33;;;;;;;24.78;59.05;101002.56;5137445;27;20442;-63
2021/07/19 11:10:29;;;;;;;5.13;2.47;;;;;;;24.82;58.18;101000.25;5138162;27;20043;-59
2021/07/19 11:12:58;;;;;;;8.10;2.17;;;;;;;24.85;57.82;100998.97;5137017;27;20034;-61
2021/07/19 11:15:35;;;;;;;5.53;2.13;;;;;;;24.86;57.52;100990.63;5137200;27;20115;-56
2021/07/19 12:48:08;;;;;;;17.92;1.98;;;;;;;24.96;54.97;100951.44;5190832;27;20533;-84
2021/07/19 13:06:37;;;;;;;4.97;1.45;;;;;;;28.79;43.11;100931.06;5121515;27;20655;-79
2021/07/19 13:09:07;;;;;;;1.90;1.40;;;;;;;28.78;42.61;100928.59;5108660;28;20040;-79
2021/07/19 13:11:40;;;;;;;1.88;1.00;;;;;;;28.80;42.91;100929.16;5088867;28;20037;-79
2021/07/19 13:14:18;;;;;;;5.18;1.40;;;;;;;28.79;41.58;100920.19;5069054;28;20035;-81
2021/07/19 13:16:59;;;;;;;2.17;1.50;;;;;;;28.92;40.97;100923.56;5070049;28;20036;-78
2021/07/19 13:19:33;;;;;;;3.33;1.38;;;;;;;29.01;41.13;100921.22;5088202;28;20060;-78
2021/07/19 13:22:00;;;;;;;2.83;1.40;;;;;;;29.09;40.86;100920.75;5087441;28;20517;-80
2021/07/19 13:24:44;;;;;;;1.35;1.00;;;;;;;29.12;40.69;100916.69;5088637;28;20044;-78
2021/07/19 13:27:15;;;;;;;4.97;1.33;;;;;;;29.05;42.11;100920.44;5071667;28;20410;-82
2021/07/19 13:29:56;;;;;;;4.20;1.38;;;;;;;29.06;40.93;100915.84;5079657;28;20043;-79
2021/07/19 13:32:26;;;;;;;2.35;1.27;;;;;;;29.19;40.03;100914.59;5060090;28;20025;-78
2021/07/19 13:35:11;;;;;;;2.33;1.20;;;;;;;29.33;39.19;100912.25;5084228;28;20689;-81
2021/07/19 13:37:41;;;;;;;2.40;1.40;;;;;;;29.35;38.98;100905.44;5064537;28;20093;-80
2021/07/19 13:40:14;;;;;;;2.08;1.23;;;;;;;29.42;38.06;100904.41;5083549;28;20648;-78
2021/07/19 13:42:47;;;;;;;1.58;1.20;;;;;;;29.50;38.87;100895.75;5095592;28;20039;-78
2021/07/19 13:45:18;;;;;;;3.95;1.13;;;;;;;29.58;38.89;100897.22;5061787;28;20483;-79
2021/07/19 13:47:45;;;;;;;2.58;1.05;;;;;;;29.65;38.47;100902.44;5048662;28;20044;-78
2021/07/19 13:50:11;;;;;;;1.02;0.93;;;;;;;29.71;38.33;100895.94;5066703;28;20044;-85
2021/07/19 13:52:37;;;;;;;2.42;1.30;;;;;;;29.78;37.98;100903.88;5058608;28;20039;-81
2021/07/19 13:55:05;;;;;;;4.28;1.38;;;;;;;29.84;37.38;100900.09;5086704;28;20059;-83
2021/07/19 13:57:31;;;;;;;4.35;1.20;;;;;;;29.88;36.67;100898.47;5068606;28;20032;-82
2021/07/19 13:59:56;;;;;;;4.10;1.30;;;;;;;29.92;35.28;100894.16;5086028;28;20498;-81
2021/07/19 14:02:22;;;;;;;1.45;0.88;;;;;;;30.05;34.46;100895.59;5068242;28;20043;-81
2021/07/19 14:04:48;;;;;;;2.03;1.30;;;;;;;30.15;33.82;100897.50;5085996;28;20050;-80
2021/07/19 14:07:15;;;;;;;4.72;1.13;;;;;;;30.24;34.08;100883.41;5084585;28;20382;-82
2021/07/19 14:09:42;;;;;;;1.52;1.10;;;;;;;30.32;33.53;100893.81;5084149;28;20499;-78
2021/07/19 14:12:09;;;;;;;4.38;1.10;;;;;;;30.28;34.50;100887.22;5084627;28;20038;-79
2021/07/19 14:14:35;;;;;;;2.40;1.17;;;;;;;30.28;34.35;100881.78;5085772;28;20043;-82
2021/07/19 14:17:01;;;;;;;2.35;0.90;;;;;;;30.37;33.14;100884.81;5092765;28;20120;-81
2021/07/19 14:19:27;;;;;;;4.28;0.93;;;;;;;30.43;32.34;100883.75;5041536;28;20041;-79
2021/07/19 14:21:53;;;;;;;2.35;1.00;;;;;;;30.45;31.59;100881.56;5038549;28;20036;-79
2021/07/19 14:24:19;;;;;;;2.63;0.98;;;;;;;30.42;32.11;100880.19;5073771;28;20082;-80
2021/07/19 14:26:45;;;;;;;3.25;1.10;;;;;;;30.43;32.23;100875.56;5054562;28;20043;-81
2021/07/19 14:29:11;;;;;;;1.98;0.98;;;;;;;30.41;32.42;100885.91;5054991;28;20124;-80
2021/07/19 14:31:37;;;;;;;2.30;1.00;;;;;;;30.39;31.79;100874.47;5081411;28;20112;-78
2021/07/19 14:34:04;;;;;;;2.17;1.17;;;;;;;30.38;31.79;100870.09;5084905;28;20040;-79
2021/07/19 14:36:30;;;;;;;1.48;1.00;;;;;;;30.42;31.50;100874.72;5083864;28;20093;-79
2021/07/19 14:38:56;;;;;;;1.00;0.93;;;;;;;30.43;31.25;100873.66;5070154;28;20507;-79
2021/07/19 14:41:22;;;;;;;3.60;0.90;;;;;;;30.49;30.91;100868.19;5085426;28;20028;-78
2021/07/19 14:43:48;;;;;;;10.77;0.93;;;;;;;30.48;31.22;100869.31;5093382;28;20031;-78
2021/07/19 14:46:14;;;;;;;0.80;0.70;;;;;;;30.43;30.84;100861.94;5105307;28;20047;-79
2021/07/19 14:48:40;;;;;;;4.32;1.02;;;;;;;30.39;31.08;100863.56;5092973;28;20032;-80
2021/07/19 14:51:08;;;;;;;3.22;1.23;;;;;;;30.35;30.83;100866.00;5093572;28;20075;-79
2021/07/19 14:53:35;;;;;;;2.50;0.90;;;;;;;30.33;30.77;100858.09;5089878;28;20496;-80
2021/07/19 14:56:03;;;;;;;1.95;0.95;;;;;;;30.26;30.72;100857.50;5091755;28;20516;-80
2021/07/19 14:58:29;;;;;;;1.75;0.98;;;;;;;30.31;30.39;100865.72;5073631;28;20044;-80
2021/07/19 15:00:56;;;;;;;1.55;1.08;;;;;;;30.36;30.62;100862.16;5092076;28;20085;-78
2021/07/19 15:03:23;;;;;;;5.05;0.90;;;;;;;30.40;31.14;100857.84;5090140;28;20032;-80
2021/07/19 15:05:52;;;;;;;2.03;1.00;;;;;;;30.49;30.71;100865.47;5075607;28;20040;-80
2021/07/19 15:10:08;;;;;;;6.63;1.00;;;;;;;30.52;30.42;100846.66;5036721;27;20130;-80
2021/07/19 15:12:34;;;;;;;3.15;0.85;;;;;;;30.54;30.23;100847.22;5052935;28;20719;-82
2021/07/19 15:15:00;;;;;;;5.35;1.10;;;;;;;30.55;30.69;100850.75;5067776;28;20040;-80
2021/07/19 15:17:30;;;;;;;3.17;0.90;;;;;;;30.58;30.84;100836.56;5067476;28;20487;-79
2021/07/19 15:19:56;;;;;;;1.08;0.98;;;;;;;30.65;30.56;100839.88;5073715;28;20498;-80
2021/07/19 15:22:22;;;;;;;1.73;0.77;;;;;;;30.67;30.31;100842.34;5074529;28;20119;-80
2021/07/19 15:24:47;;;;;;;3.63;0.73;;;;;;;30.65;30.71;100839.88;5078257;28;20028;-82
2021/07/19 15:27:13;;;;;;;3.30;1.05;;;;;;;30.63;30.96;100827.59;5059556;28;20032;-80
2021/07/19 15:29:39;;;;;;;2.35;0.93;;;;;;;30.66;30.93;100833.31;5075559;28;20390;-79
2021/07/19 15:32:05;;;;;;;1.60;0.88;;;;;;;30.70;31.25;100834.44;5057583;28;20082;-79
2021/07/19 15:34:31;;;;;;;1.90;1.20;;;;;;;30.64;31.59;100829.22;5072730;28;20078;-80
2021/07/19 15:36:57;;;;;;;0.98;0.82;;;;;;;30.55;31.63;100835.22;5060962;28;20037;-78
2021/07/19 15:39:23;;;;;;;5.35;1.00;;;;;;;30.49;31.59;100827.28;5078649;28;20028;-78
2021/07/19 15:41:49;;;;;;;2.80;1.00;;;;;;;30.49;32.14;100821.84;5069085;28;20395;-79
2021/07/19 15:44:15;;;;;;;3.75;1.08;;;;;;;30.45;31.86;100827.84;5049443;28;20036;-78
2021/07/19 15:46:41;;;;;;;1.83;1.15;;;;;;;30.41;32.34;100824.03;5050939;28;20025;-78
2021/07/19 15:49:06;;;;;;;2.88;0.90;;;;;;;30.38;32.42;100824.56;5066184;28;20029;-77
2021/07/19 15:51:33;;;;;;;4.93;1.00;;;;;;;30.33;32.32;100819.09;5065236;28;20033;-78
2021/07/19 15:53:59;;;;;;;4.30;0.95;;;;;;;30.31;32.00;100816.63;5066267;28;20033;-78
2021/07/19 15:56:25;;;;;;;1.58;0.95;;;;;;;30.27;30.73;100814.72;5049866;28;20079;-78
2021/07/19 15:58:51;;;;;;;1.10;1.00;;;;;;;30.23;30.80;100810.91;5067377;28;20123;-78
2021/07/19 16:01:17;;;;;;;6.75;1.30;;;;;;;30.25;30.57;100811.44;5065621;28;20086;-78
2021/07/19 16:03:43;;;;;;;4.93;0.85;;;;;;;30.32;31.28;100814.72;5067228;28;20112;-78
2021/07/19 16:06:09;;;;;;;1.58;1.05;;;;;;;30.37;31.95;100800.28;5067213;28;20032;-78
2021/07/19 16:08:35;;;;;;;1.65;1.00;;;;;;;30.38;32.62;100816.38;5049268;28;20045;-79
2021/07/19 16:11:02;;;;;;;3.20;1.00;;;;;;;30.36;32.13;100807.63;5067374;28;20503;-79
2021/07/19 16:13:27;;;;;;;2.92;0.88;;;;;;;30.38;32.08;100808.19;5066840;28;20167;-78
2021/07/19 16:15:54;;;;;;;3.42;1.20;;;;;;;30.41;32.52;100804.09;5067316;28;20469;-79
2021/07/19 16:18:19;;;;;;;2.13;1.42;;;;;;;30.47;31.83;100811.19;5032578;28;20191;-78
2021/07/19 16:20:46;;;;;;;2.58;1.17;;;;;;;30.47;32.50;100803.03;5057742;28;20108;-78
2021/07/19 16:23:13;;;;;;;2.33;1.08;;;;;;;30.45;32.46;100802.50;5035727;28;20057;-78
2021/07/19 16:25:38;;;;;;;3.55;1.25;;;;;;;30.44;32.46;100807.13;5054366;28;20024;-79
2021/07/19 16:28:06;;;;;;;2.40;1.58;;;;;;;30.46;32.55;100809.56;5036138;28;20605;-80
2021/07/19 16:30:32;;;;;;;1.98;1.10;;;;;;;30.50;32.77;100807.13;5035982;28;20032;-79
2021/07/19 16:32:58;;;;;;;2.47;1.20;;;;;;;30.52;32.54;100807.66;5053595;28;20033;-79
2021/07/19 16:35:24;;;;;;;8.90;1.20;;;;;;;30.52;32.56;100808.50;5053261;28;20507;-79
2021/07/19 16:37:49;;;;;;;1.73;1.02;;;;;;;30.49;32.71;100803.56;5053778;28;20395;-79
2021/07/19 16:40:15;;;;;;;1.70;1.02;;;;;;;30.47;32.64;100799.50;5019481;28;20044;-79
2021/07/19 16:42:41;;;;;;;3.13;0.90;;;;;;;30.44;32.23;100801.66;5053033;28;20518;-79
2021/07/19 16:47:52;;;;;;;3.75;1.52;;;;;;;30.36;32.82;100793.22;5015821;28;20040;-78
2021/07/19 16:50:19;;;;;;;5.40;1.60;;;;;;;30.35;32.28;100794.28;5036965;28;20090;-78
2021/07/19 16:52:46;;;;;;;6.03;1.30;;;;;;;30.34;32.06;100793.47;5032483;28;20392;-78
2021/07/19 16:55:16;;;;;;;5.20;1.40;;;;;;;30.37;32.57;100789.38;5033576;28;20107;-79
2021/07/19 16:57:42;;;;;;;6.28;1.60;;;;;;;30.35;33.23;100795.09;5030520;28;20117;-81
2021/07/19 17:00:10;;;;;;;2.38;1.00;;;;;;;30.31;33.72;100794.81;5043341;28;20060;-80
2021/07/19 17:02:36;;;;;;;2.90;0.93;;;;;;;30.28;34.17;100789.06;5035815;28;20033;-78
2021/07/19 17:05:04;;;;;;;6.20;1.00;;;;;;;30.27;34.50;100785.56;5034661;28;20040;-80
2021/07/19 17:07:30;;;;;;;2.22;1.30;;;;;;;30.24;34.71;100786.09;5052614;28;20111;-80
2021/07/19 17:09:56;;;;;;;2.85;1.38;;;;;;;30.15;34.42;100788.47;5032556;28;20127;-79
2021/07/19 17:12:22;;;;;;;3.50;1.17;;;;;;;30.06;34.98;100784.63;5044440;28;20375;-79
2021/07/19 17:14:48;;;;;;;3.95;1.20;;;;;;;30.03;35.24;100783.28;5049117;28;20592;-80
2021/07/19 17:17:13;;;;;;;4.32;1.42;;;;;;;30.06;35.02;100781.91;5035599;28;20526;-80
2021/07/19 17:19:39;;;;;;;6.35;1.20;;;;;;;30.04;35.43;100787.63;5051725;28;20179;-79
2021/07/19 17:22:05;;;;;;;6.35;1.30;;;;;;;30.04;36.05;100781.34;5034649;28;20037;-79
2021/07/19 17:24:31;;;;;;;3.28;1.20;;;;;;;30.01;36.26;100776.44;5033621;28;20044;-80
2021/07/19 17:26:57;;;;;;;3.38;1.20;;;;;;;30.00;35.98;100781.09;5030142;28;20030;-81
2021/07/19 17:29:24;;;;;;;5.57;1.25;;;;;;;30.01;35.76;100779.16;5043063;28;20503;-79
2021/07/19 17:31:50;;;;;;;6.78;1.23;;;;;;;30.02;36.47;100773.44;5048549;28;20116;-78
2021/07/19 17:34:16;;;;;;;6.28;1.63;;;;;;;30.04;36.28;100773.19;5014455;28;20111;-79
2021/07/19 17:36:42;;;;;;;3.58;1.77;;;;;;;30.00;36.12;100766.63;5036350;28;20037;-78
2021/07/19 17:39:10;;;;;;;4.00;1.13;;;;;;;29.96;36.06;100771.78;5036105;28;20037;-78
2021/07/19 17:41:37;;;;;;;3.38;1.27;;;;;;;29.96;36.75;100771.78;5003829;28;20047;-78
2021/07/19 17:44:03;;;;;;;3.63;1.38;;;;;;;29.95;37.27;100768.28;5029704;28;20036;-78
2021/07/19 17:46:29;;;;;;;3.05;1.42;;;;;;;29.95;37.16;100770.16;5046577;28;20087;-78
2021/07/19 17:48:55;;;;;;;3.95;1.52;;;;;;;29.93;36.98;100764.16;5050060;28;20029;-79
2021/07/19 17:51:20;;;;;;;5.07;1.38;;;;;;;29.90;37.68;100764.69;5029894;28;20029;-79
2021/07/19 17:53:46;;;;;;;2.53;1.60;;;;;;;29.81;38.04;100762.50;5032676;28;20033;-79
2021/07/19 17:56:12;;;;;;;2.25;1.48;;;;;;;29.75;38.12;100755.38;5011461;28;20053;-79
2021/07/19 17:58:37;;;;;;;1.88;1.35;;;;;;;29.70;37.97;100758.09;5025944;28;20590;-81
2021/07/19 18:01:03;;;;;;;4.20;1.25;;;;;;;29.66;38.02;100765.97;5020579;28;20030;-80
2021/07/19 18:03:29;;;;;;;4.22;1.40;;;;;;;29.61;38.07;100752.34;5017492;28;20606;-82
2021/07/19 18:05:55;;;;;;;3.47;1.48;;;;;;;29.56;37.91;100755.81;5050728;28;20115;-82
2021/07/19 18:08:21;;;;;;;5.20;1.50;;;;;;;29.51;38.38;100761.28;5049542;28;20125;-81
2021/07/19 18:10:46;;;;;;;6.75;1.40;;;;;;;29.50;38.76;100756.09;5031138;28;20515;-80
2021/07/19 18:13:12;;;;;;;7.72;1.73;;;;;;;29.47;39.11;100760.97;5047043;28;20115;-80
2021/07/19 18:15:39;;;;;;;2.05;1.55;;;;;;;29.46;39.45;100761.22;5049806;28;20036;-82
2021/07/19 18:18:06;;;;;;;3.78;1.48;;;;;;;29.45;39.81;100765.03;5050415;28;20502;-80
2021/07/19 18:20:32;;;;;;;3.83;1.73;;;;;;;29.44;39.32;100763.41;5020072;28;20033;-81
2021/07/19 18:30:42;;;;;;;2.97;1.63;;;;;;;29.38;39.12;100759.84;5022592;28;20064;-81
2021/07/19 18:33:12;;;;;;;1.63;1.33;;;;;;;29.38;39.10;100762.56;5025060;28;20184;-81
2021/07/19 18:35:40;;;;;;;1.98;1.40;;;;;;;29.35;39.20;100765.81;5039175;28;20483;-81
2021/07/19 18:38:08;;;;;;;3.58;1.30;;;;;;;29.33;39.88;100760.63;5040696;28;20053;-82
2021/07/19 18:40:35;;;;;;;4.53;1.60;;;;;;;29.33;40.13;100773.41;5011686;28;20033;-82
2021/07/19 18:43:01;;;;;;;3.50;2.00;;;;;;;29.30;40.38;100763.06;5041661;28;20029;-81
2021/07/19 18:45:27;;;;;;;3.80;1.50;;;;;;;29.29;40.63;100764.16;5025618;28;20041;-82
2021/07/19 18:47:53;;;;;;;4.47;1.35;;;;;;;29.27;40.04;100756.25;5026282;28;20395;-81
2021/07/19 18:50:19;;;;;;;5.22;1.30;;;;;;;29.24;40.15;100759.50;5041980;28;20107;-82
2021/07/19 18:52:50;;;;;;;8.45;1.90;;;;;;;29.18;40.27;100755.91;5046951;28;20039;-81
2021/07/19 18:55:17;;;;;;;2.22;1.60;;;;;;;29.13;40.67;100755.06;5030438;28;20029;-81
2021/07/19 18:57:44;;;;;;;3.35;1.90;;;;;;;29.06;42.02;100758.84;5049793;28;20033;-81
2021/07/19 19:00:17;;;;;;;4.45;1.52;;;;;;;28.98;42.75;100756.59;5029987;28;20133;-80
2021/07/19 19:02:43;;;;;;;4.45;1.70;;;;;;;28.92;43.69;100754.88;5049322;28;20033;-79
2021/07/19 19:05:11;;;;;;;5.47;1.65;;;;;;;28.83;44.73;100754.53;5030020;28;20120;-80
2021/07/19 19:07:37;;;;;;;3.13;1.83;;;;;;;28.75;45.10;100752.31;5046005;28;20467;-80
2021/07/19 19:10:04;;;;;;;3.05;1.85;;;;;;;28.61;46.21;100752.75;5048339;28;20091;-81
2021/07/19 19:12:30;;;;;;;5.95;2.00;;;;;;;28.48;47.13;100764.84;5031269;28;20056;-79
2021/07/19 19:14:56;;;;;;;8.10;2.03;;;;;;;28.25;48.29;100758.66;5031253;28;20120;-81
2021/07/19 19:17:22;;;;;;;4.05;2.05;;;;;;;28.11;49.50;100756.31;5011989;28;20036;-80
2021/07/19 19:19:49;;;;;;;4.80;2.17;;;;;;;27.91;50.34;100759.63;5030601;28;20602;-80
2021/07/19 19:22:15;;;;;;;6.68;2.10;;;;;;;27.68;50.63;100758.00;5029182;28;20044;-80
2021/07/19 19:24:41;;;;;;;3.67;2.80;;;;;;;27.49;51.24;100761.81;5048943;28;20043;-79
2021/07/19 19:27:08;;;;;;;5.28;2.80;;;;;;;27.32;52.04;100764.56;5013472;28;20068;-80
2021/07/19 19:29:35;;;;;;;4.40;2.10;;;;;;;27.19;52.58;100764.91;5030212;28;20033;-81
2021/07/19 19:32:00;;;;;;;5.32;2.70;;;;;;;27.09;52.84;100760.97;5031434;28;20498;-80
2021/07/19 19:34:28;;;;;;;3.67;2.60;;;;;;;27.03;53.24;100777.44;5029083;28;20029;-80
2021/07/19 19:36:54;;;;;;;4.55;2.42;;;;;;;26.97;53.54;100765.63;5046834;28;20052;-81
2021/07/19 19:39:19;;;;;;;4.32;2.60;;;;;;;26.93;54.18;100765.28;5013415;28;20068;-81
2021/07/19 19:41:45;;;;;;;6.45;2.70;;;;;;;26.88;54.47;100760.59;5048409;28;20498;-80
2021/07/19 19:44:11;;;;;;;7.28;2.50;;;;;;;26.82;54.79;100763.50;5048206;28;20040;-81
2021/07/19 19:46:37;;;;;;;3.53;2.28;;;;;;;26.78;55.46;100754.19;5048277;28;20029;-79
2021/07/19 19:49:04;;;;;;;5.50;2.15;;;;;;;26.72;55.50;100756.03;5048026;28;20033;-81
2021/07/19 19:51:32;;;;;;;3.60;2.35;;;;;;;26.65;55.57;100756.16;5029403;28;20056;-81
2021/07/19 19:53:57;;;;;;;6.90;2.58;;;;;;;26.57;55.74;100759.28;5030664;28;20492;-81
2021/07/19 19:56:23;;;;;;;5.30;2.92;;;;;;;26.48;56.33;100759.69;5032096;28;20029;-81
2021/07/19 19:58:49;;;;;;;5.68;2.47;;;;;;;26.45;56.49;100762.91;5033994;28;20017;-81
2021/07/19 20:01:16;;;;;;;9.18;2.80;;;;;;;26.34;56.66;100756.44;5028222;28;20119;-81
2021/07/19 20:03:42;;;;;;;7.75;2.63;;;;;;;26.29;57.17;100758.22;5035180;28;20043;-82
2021/07/19 20:06:09;;;;;;;4.22;2.67;;;;;;;26.23;56.93;100762.72;5027873;28;20034;-81
2021/07/19 20:08:35;;;;;;;4.72;2.70;;;;;;;26.16;57.15;100762.03;5051397;28;20175;-80
2021/07/19 20:11:01;;;;;;;8.15;2.78;;;;;;;26.08;57.36;100769.50;5051993;28;20041;-81
2021/07/19 20:13:27;;;;;;;6.95;3.22;;;;;;;25.99;57.66;100769.03;5051955;28;20053;-80
2021/07/19 20:15:53;;;;;;;8.52;3.10;;;;;;;25.92;57.67;100773.78;5053394;28;20071;-79
2021/07/19 20:18:20;;;;;;;9.60;3.15;;;;;;;25.87;57.84;100773.66;5032212;28;20138;-80
2021/07/19 20:20:47;;;;;;;7.38;3.10;;;;;;;25.80;57.70;100776.50;5052168;28;20037;-80
2021/07/19 20:23:14;;;;;;;7.55;2.90;;;;;;;25.76;57.74;100775.34;5035193;28;20068;-80
2021/07/19 20:25:40;;;;;;;7.05;2.90;;;;;;;25.69;57.93;100780.88;5034024;28;20044;-79
2021/07/19 20:28:07;;;;;;;5.75;3.03;;;;;;;25.61;58.31;100783.94;5010049;28;20120;-80
2021/07/19 20:30:35;;;;;;;5.80;3.08;;;;;;;25.57;57.99;100788.16;5050227;28;20056;-79
2021/07/19 20:33:01;;;;;;;6.32;3.40;;;;;;;25.52;58.14;100795.13;5034466;28;20032;-80
2021/07/19 20:35:27;;;;;;;6.30;2.83;;;;;;;25.46;58.32;100790.66;5018441;28;20033;-80
2021/07/19 20:37:53;;;;;;;5.25;3.05;;;;;;;25.43;58.41;100801.13;5037558;28;20381;-80
2021/07/19 20:40:20;;;;;;;13.43;3.17;;;;;;;25.40;58.51;100797.03;5034208;28;20068;-79
2021/07/19 20:42:46;;;;;;;8.60;3.88;;;;;;;25.36;58.49;100798.53;5033387;28;20029;-80
2021/07/19 20:45:15;;;;;;;6.45;3.67;;;;;;;25.32;58.47;100800.06;5021481;28;20030;-80
2021/07/19 20:47:42;;;;;;;7.35;2.78;;;;;;;25.27;58.50;100804.31;5022992;28;20041;-80
2021/07/19 20:50:11;;;;;;;5.53;2.65;;;;;;;25.26;58.63;100820.75;5043440;28;20033;-80
2021/07/19 20:52:37;;;;;;;9.15;3.13;;;;;;;25.22;58.47;100815.00;5042283;28;20037;-80
2021/07/19 20:55:10;;;;;;;9.55;3.28;;;;;;;25.21;58.23;100820.66;5023478;28;20037;-80
2021/07/19 20:57:36;;;;;;;9.77;2.72;;;;;;;25.20;58.17;100821.69;5042545;28;20437;-81
2021/07/19 21:00:05;;;;;;;8.65;2.97;;;;;;;25.17;58.27;100814.88;5039887;28;20032;-81
2021/07/19 21:02:31;;;;;;;6.00;3.28;;;;;;;25.13;58.03;100824.53;5025155;28;20035;-80
2021/07/19 21:04:56;;;;;;;5.97;3.40;;;;;;;25.12;58.09;100828.25;5041070;28;20037;-81
2021/07/19 21:07:22;;;;;;;6.43;2.92;;;;;;;25.10;58.08;100830.41;5040826;28;20111;-81
2021/07/19 21:09:48;;;;;;;6.18;2.90;;;;;;;25.09;58.04;100831.44;5008619;28;20357;-80
2021/07/19 21:12:13;;;;;;;9.07;3.40;;;;;;;25.02;58.65;100834.28;5015268;28;20033;-81
2021/07/19 21:14:40;;;;;;;7.35;3.10;;;;;;;24.94;59.15;100845.41;5012505;28;20443;-81
2021/07/19 21:17:08;;;;;;;6.57;3.15;;;;;;;24.82;59.36;100837.22;5034407;28;20403;-81
2021/07/19 21:19:33;;;;;;;4.57;3.03;;;;;;;24.71;59.88;100842.38;5014676;28;20037;-81
2021/07/19 21:21:59;;;;;;;8.43;3.30;;;;;;;24.69;60.05;100843.63;5040772;28;20041;-81
2021/07/19 21:24:25;;;;;;;5.60;2.95;;;;;;;24.63;60.20;100846.22;5025977;28;20403;-80
2021/07/19 21:26:52;;;;;;;6.30;3.20;;;;;;;24.59;60.39;100841.50;5032711;28;20595;-80
2021/07/19 21:29:19;;;;;;;12.10;3.20;;;;;;;24.55;60.58;100843.84;5026978;28;20037;-81
2021/07/19 21:31:44;;;;;;;9.85;3.22;;;;;;;24.49;60.69;100839.34;5042484;28;20025;-81
2021/07/19 21:34:10;;;;;;;11.35;3.63;;;;;;;24.48;61.03;100851.22;5041213;28;20079;-81
2021/07/19 21:36:37;;;;;;;3.40;3.10;;;;;;;24.41;61.35;100848.59;5032083;28;20459;-81
2021/07/19 21:39:03;;;;;;;8.73;3.42;;;;;;;24.38;61.52;100852.56;5050202;28;20029;-81
2021/07/19 21:41:28;;;;;;;11.05;3.10;;;;;;;24.39;61.27;100850.69;5035951;28;20029;-81
2021/07/19 21:43:54;;;;;;;9.70;3.20;;;;;;;24.36;61.28;100846.56;5014211;28;20025;-81
2021/07/19 21:46:20;;;;;;;7.45;3.33;;;;;;;24.36;61.02;100845.75;5039206;28;20037;-81
2021/07/19 21:48:45;;;;;;;5.18;3.60;;;;;;;24.37;60.98;100850.09;5031304;28;20098;-81
2021/07/19 21:51:11;;;;;;;10.43;3.50;;;;;;;24.35;60.49;100850.31;5031369;28;20033;-81
2021/07/19 21:53:37;;;;;;;3.30;2.78;;;;;;;24.34;60.44;100843.28;5049713;28;20103;-81
2021/07/19 21:56:04;;;;;;;9.02;3.33;;;;;;;24.35;60.21;100844.91;5051296;28;20068;-81
2021/07/19 21:58:29;;;;;;;5.45;3.38;;;;;;;24.37;59.91;100840.13;5050895;28;20029;-81
2021/07/19 22:00:58;;;;;;;4.85;3.30;;;;;;;24.36;60.01;100834.94;5033321;28;20461;-81
2021/07/19 22:03:23;;;;;;;5.80;3.17;;;;;;;24.35;59.66;100836.81;5051434;28;20033;-81
2021/07/19 22:05:49;;;;;;;6.15;3.50;;;;;;;24.27;59.73;100839.84;5050828;28;20038;-81
2021/07/19 22:08:15;;;;;;;6.57;3.83;;;;;;;24.23;60.04;100836.75;5045502;28;20396;-81
2021/07/19 22:10:41;;;;;;;3.80;3.38;;;;;;;24.20;60.22;100845.31;5030924;28;20065;-81
2021/07/19 22:13:07;;;;;;;4.40;3.50;;;;;;;24.12;60.34;100840.19;5042335;28;20036;-81
2021/07/19 22:15:34;;;;;;;4.78;2.83;;;;;;;24.06;60.32;100850.00;5024058;28;20029;-81
2021/07/19 22:18:01;;;;;;;3.95;3.22;;;;;;;24.04;60.11;100844.84;5049593;28;20025;-81
2021/07/19 22:20:27;;;;;;;4.38;3.20;;;;;;;23.98;60.74;100851.16;5015833;28;20082;-82
2021/07/19 22:22:58;;;;;;;7.53;3.97;;;;;;;23.88;60.39;100857.06;5028864;28;20484;-82
2021/07/19 22:25:23;;;;;;;9.93;3.30;;;;;;;23.75;61.01;100854.47;5049187;28;20444;-83
2021/07/19 22:27:51;;;;;;;6.60;3.80;;;;;;;23.65;61.18;100855.00;5049791;28;20028;-83
2021/07/19 22:30:20;;;;;;;3.60;3.03;;;;;;;23.53;61.79;100858.44;5026973;28;20107;-82
2021/07/19 22:32:49;;;;;;;7.45;3.28;;;;;;;23.40;61.74;100859.38;5031744;28;20053;-83
2021/07/19 22:35:18;;;;;;;7.88;3.45;;;;;;;23.35;62.09;100863.75;4998401;28;20032;-82
2021/07/19 22:37:45;;;;;;;5.35;3.80;;;;;;;23.30;62.58;100857.13;5044726;28;20052;-83
2021/07/19 22:40:11;;;;;;;8.00;3.70;;;;;;;23.25;62.44;100864.22;5036607;28;20439;-83
2021/07/19 22:42:37;;;;;;;7.15;4.15;;;;;;;23.22;62.77;100868.16;5048246;28;20499;-83
2021/07/19 22:45:07;;;;;;;9.00;4.63;;;;;;;23.19;63.13;100867.81;5048653;28;20032;-80
2021/07/19 22:47:32;;;;;;;14.20;8.43;;;;;;;23.14;63.81;100868.47;5031438;28;20039;-80
2021/07/19 22:49:58;;;;;;;9.88;5.18;;;;;;;23.05;63.71;100865.19;5032083;28;20036;-80
2021/07/19 22:52:24;;;;;;;10.20;5.78;;;;;;;22.97;64.55;100863.56;5049602;28;20040;-80
2021/07/19 22:54:49;;;;;;;11.18;6.90;;;;;;;22.93;64.97;100870.47;5032265;28;20399;-80
2021/07/19 22:57:15;;;;;;;10.48;5.93;;;;;;;22.89;65.22;100867.38;5031734;28;20395;-80
2021/07/19 22:59:41;;;;;;;10.13;6.18;;;;;;;22.88;65.43;100865.72;5032046;28;20037;-81
2021/07/19 23:02:07;;;;;;;14.30;5.72;;;;;;;22.88;65.16;100868.41;5048620;28;20041;-81
2021/07/19 23:04:32;;;;;;;12.80;6.30;;;;;;;22.89;65.20;100864.66;5049649;28;20061;-81
2021/07/19 23:06:58;;;;;;;11.30;6.13;;;;;;;22.88;65.05;100870.28;5049412;28;20029;-81
2021/07/19 23:09:25;;;;;;;16.60;6.30;;;;;;;22.87;65.11;100866.75;5015069;28;20140;-82
2021/07/19 23:11:51;;;;;;;11.38;6.32;;;;;;;22.86;65.32;100864.25;5049520;28;20025;-81
2021/07/19 23:14:17;;;;;;;12.07;7.15;;;;;;;22.77;65.49;100869.94;5014918;28;20039;-81
2021/07/19 23:16:42;;;;;;;9.38;5.90;;;;;;;22.71;65.58;100867.28;5049326;28;20040;-81
2021/07/19 23:19:08;;;;;;;14.07;6.10;;;;;;;22.63;65.76;100860.25;5031846;28;20399;-82
2021/07/19 23:21:34;;;;;;;6.97;5.03;;;;;;;22.66;65.64;100863.34;5049588;28;20406;-82
2021/07/19 23:24:03;;;;;;;8.55;5.63;;;;;;;22.62;65.49;100867.50;5049328;28;20072;-83
2021/07/19 23:26:29;;;;;;;10.15;5.60;;;;;;;22.62;65.60;100874.75;5012084;28;20112;-83
2021/07/19 23:28:54;;;;;;;11.18;5.53;;;;;;;22.58;65.14;100871.66;5014381;28;20036;-82